Time;durP1;ratioP1;P1;durP2;ratioP2;P2;SDS_P1;SDS_P2;PMS_P1;PMS_P2;Temp;Humidity;BMP_temperature;BMP_pressure;BME280_temperature;BME280_humidity;BME280_pressure;Samples;Min_cycle;Max_cycle;Signal;HPM_P1;HPM_P2
2022/04/24 00:01:30;;;;;;;;;;;;;;;12.53;64.69;100348.16;4955143;28;20029;-93
2022/04/24 00:03:56;;;;;;;;;;;;;;;12.53;64.84;100355.41;4951069;29;20696;-89
2022/04/24 00:06:24;;;;;;;;;;;;;;;12.65;64.29;100356.63;4946591;29;19910;-89
2022/04/24 00:08:49;;;;;;;;;;;;;;;12.62;64.04;100354.31;4930924;29;19910;-92
2022/04/24 00:11:15;;;;;;;;;;;;;;;12.61;64.25;100360.72;4921082;29;19917;-91
2022/04/24 00:13:42;;;;;;;;;;;;;;;12.58;64.28;100366.47;4948228;29;19914;-91
2022/04/24 00:16:07;;;;;;;;;;;;;;;12.63;64.12;100364.91;4944286;29;20009;-92
2022/04/24 00:18:35;;;;;;;;;;;;;;;12.68;64.08;100361.66;4946615;29;20085;-91
2022/04/24 00:21:01;;;;;;;;;;;;;;;12.51;64.79;100370.91;4938974;29;19969;-92
2022/04/24 00:23:26;;;;;;;;;;;;;;;12.43;65.27;100369.09;4946442;29;19926;-90
2022/04/24 00:25:54;;;;;;;;;;;;;;;12.35;65.72;100361.91;4927876;29;19911;-92
2022/04/24 00:28:19;;;;;;;;;;;;;;;12.19;66.14;100353.94;4944828;29;19925;-92
2022/04/24 00:30:57;;;;;;;;;;;;;;;12.13;66.40;100362.78;5017635;28;19914;-90
2022/04/24 00:33:23;;;;;;;;;;;;;;;12.24;66.03;100355.13;4980454;28;19924;-90
2022/04/24 00:35:48;;;;;;;;;;;;;;;12.27;65.53;100359.31;4969443;28;19972;-89
2022/04/24 00:38:14;;;;;;;;;;;;;;;12.29;65.40;100361.78;4974168;28;19922;-90
2022/04/24 00:40:39;;;;;;;;;;;;;;;12.29;65.18;100368.06;4970361;28;20009;-90
2022/04/24 00:43:05;;;;;;;;;;;;;;;12.32;64.72;100370.38;4975519;28;20377;-92
2022/04/24 00:45:30;;;;;;;;;;;;;;;12.25;65.00;100366.72;4979944;28;19918;-88
2022/04/24 00:47:56;;;;;;;;;;;;;;;12.27;64.79;100367.38;4982942;28;19996;-91
2022/04/24 00:50:21;;;;;;;;;;;;;;;12.25;64.87;100367.56;5005479;28;19952;-92
2022/04/24 00:52:47;;;;;;;;;;;;;;;12.26;64.88;100368.38;4972882;28;20430;-91
2022/04/24 00:55:12;;;;;;;;;;;;;;;12.25;64.88;100372.13;4976751;28;20393;-91
2022/04/24 00:57:37;;;;;;;;;;;;;;;12.15;65.19;100368.78;4980262;28;19919;-91
2022/04/24 01:00:03;;;;;;;;;;;;;;;12.17;65.19;100364.91;4973489;28;19953;-91
2022/04/24 01:02:28;;;;;;;;;;;;;;;12.10;65.42;100373.88;4968876;28;19922;-91
2022/04/24 01:04:54;;;;;;;;;;;;;;;12.15;65.13;100366.09;4977675;28;19960;-91
2022/04/24 01:07:19;;;;;;;;;;;;;;;12.09;64.93;100369.53;4984821;28;19954;-91
2022/04/24 01:09:44;;;;;;;;;;;;;;;12.04;65.23;100376.28;4970675;28;19922;-92
2022/04/24 01:12:10;;;;;;;;;;;;;;;12.06;65.07;100372.56;4969587;28;19926;-91
2022/04/24 01:14:35;;;;;;;;;;;;;;;11.97;65.49;100380.69;4980951;28;19916;-90
2022/04/24 01:17:01;;;;;;;;;;;;;;;11.98;65.32;100382.38;4987508;28;20326;-89
2022/04/24 01:19:26;;;;;;;;;;;;;;;12.00;65.25;100391.13;4977755;28;19997;-90
2022/04/24 01:21:52;;;;;;;;;;;;;;;11.99;65.20;100378.66;4987052;28;19921;-89
2022/04/24 01:24:19;;;;;;;;;;;;;;;12.04;65.07;100384.38;4977298;28;19921;-91
2022/04/24 01:26:45;;;;;;;;;;;;;;;12.03;65.14;100371.91;5019382;28;19954;-91
2022/04/24 01:29:11;;;;;;;;;;;;;;;12.07;64.88;100369.69;4976345;28;19974;-91
2022/04/24 01:31:36;;;;;;;;;;;;;;;12.07;64.97;100371.56;4965704;28;19951;-90
2022/04/24 01:34:02;;;;;;;;;;;;;;;11.98;65.21;100385.06;4973301;28;19922;-92
2022/04/24 01:36:27;;;;;;;;;;;;;;;12.00;65.33;100380.34;4999873;28;19929;-90
2022/04/24 01:38:52;;;;;;;;;;;;;;;11.95;65.35;100377.34;4978479;28;19918;-91
2022/04/24 01:41:18;;;;;;;;;;;;;;;12.02;65.30;100382.88;4957080;28;19915;-89
2022/04/24 01:43:43;;;;;;;;;;;;;;;12.09;65.11;100374.91;4958329;28;19921;-91
2022/04/24 01:46:08;;;;;;;;;;;;;;;12.08;65.05;100389.38;4955104;28;19914;-91
2022/04/24 01:48:34;;;;;;;;;;;;;;;11.94;65.57;100383.75;4994430;28;19925;-89
2022/04/24 01:51:03;;;;;;;;;;;;;;;11.94;65.69;100383.75;4974241;28;19914;-89
2022/04/24 01:53:31;;;;;;;;;;;;;;;11.82;66.14;100388.66;4968071;28;19941;-92
2022/04/24 01:55:57;;;;;;;;;;;;;;;11.81;66.34;100386.13;4984635;28;19914;-90
2022/04/24 01:58:22;;;;;;;;;;;;;;;11.72;66.55;100387.19;4960617;28;19930;-91
2022/04/24 02:00:48;;;;;;;;;;;;;;;11.79;66.23;100388.16;4956537;28;19914;-92
2022/04/24 02:03:16;;;;;;;;;;;;;;;11.70;66.59;100383.81;4959616;28;19915;-92
2022/04/24 02:05:41;;;;;;;;;;;;;;;11.64;66.75;100390.75;4969039;28;19922;-92
2022/04/24 02:08:06;;;;;;;;;;;;;;;11.57;66.98;100384.41;4967960;28;19928;-92
2022/04/24 02:10:32;;;;;;;;;;;;;;;11.56;66.93;100383.53;4999559;28;19918;-89
2022/04/24 02:12:57;;;;;;;;;;;;;;;11.49;67.29;100382.56;4969392;28;20263;-91
2022/04/24 02:15:23;;;;;;;;;;;;;;;11.52;67.15;100389.44;4957710;28;19921;-91
2022/04/24 02:17:48;;;;;;;;;;;;;;;11.60;66.75;100384.88;4957813;28;20346;-92
2022/04/24 02:20:13;;;;;;;;;;;;;;;11.61;66.56;100378.50;4963486;28;20012;-92
2022/04/24 02:22:39;;;;;;;;;;;;;;;11.66;66.51;100380.66;4965662;28;20369;-92
2022/04/24 02:25:04;;;;;;;;;;;;;;;11.64;66.38;100395.31;4965445;28;19927;-91
2022/04/24 02:27:30;;;;;;;;;;;;;;;11.72;66.20;100387.19;4955265;28;20146;-89
2022/04/24 02:29:55;;;;;;;;;;;;;;;11.73;66.19;100386.16;4984368;28;19937;-89
2022/04/24 02:32:20;;;;;;;;;;;;;;;11.72;66.33;100389.88;4961460;28;19922;-91
2022/04/24 02:34:45;;;;;;;;;;;;;;;11.73;66.66;100389.72;4983590;28;20050;-91
2022/04/24 02:37:11;;;;;;;;;;;;;;;11.71;66.44;100391.75;5025298;28;19978;-89
2022/04/24 02:39:36;;;;;;;;;;;;;;;11.72;66.21;100390.72;4976183;28;20009;-91
2022/04/24 02:42:02;;;;;;;;;;;;;;;11.83;65.88;100397.59;5008421;28;19918;-90
2022/04/24 02:44:27;;;;;;;;;;;;;;;11.67;66.79;100403.03;4994053;28;19997;-92
2022/04/24 02:46:52;;;;;;;;;;;;;;;11.59;67.48;100402.06;4951452;28;19919;-91
2022/04/24 02:49:20;;;;;;;;;;;;;;;11.51;68.04;100407.44;4960813;28;19972;-92
2022/04/24 02:51:45;;;;;;;;;;;;;;;11.40;68.73;100416.75;4952861;28;19957;-90
2022/04/24 02:54:10;;;;;;;;;;;;;;;11.32;68.83;100419.44;4956856;28;19964;-92
2022/04/24 02:56:36;;;;;;;;;;;;;;;11.37;68.62;100421.63;4971757;28;19997;-90
2022/04/24 02:59:02;;;;;;;;;;;;;;;11.17;69.28;100427.41;4960433;28;20300;-89
2022/04/24 03:01:28;;;;;;;;;;;;;;;10.98;69.92;100428.59;5021630;28;19952;-90
2022/04/24 03:03:53;;;;;;;;;;;;;;;10.85;70.52;100430.09;4983413;28;19918;-91
2022/04/24 03:06:18;;;;;;;;;;;;;;;10.80;70.51;100424.41;4975578;28;20387;-88
2022/04/24 03:08:46;;;;;;;;;;;;;;;10.76;70.55;100440.84;4974173;28;19922;-91
2022/04/24 03:11:12;;;;;;;;;;;;;;;10.74;70.65;100439.34;4962990;28;20323;-92
2022/04/24 03:13:37;;;;;;;;;;;;;;;10.78;70.50;100444.22;4960373;28;19925;-90
2022/04/24 03:16:02;;;;;;;;;;;;;;;10.80;70.16;100444.06;4955201;28;19914;-90
2022/04/24 03:18:28;;;;;;;;;;;;;;;10.82;70.09;100449.28;4960142;28;19925;-91
2022/04/24 03:20:54;;;;;;;;;;;;;;;10.86;70.00;100453.28;4969482;28;19918;-92
2022/04/24 03:23:19;;;;;;;;;;;;;;;11.01;69.42;100458.88;4967794;28;20008;-92
2022/04/24 03:25:45;;;;;;;;;;;;;;;11.04;69.00;100456.66;4974245;28;19915;-91
2022/04/24 03:28:10;;;;;;;;;;;;;;;11.10;69.13;100457.84;4956434;28;19937;-91
2022/04/24 03:30:36;;;;;;;;;;;;;;;11.06;69.33;100465.41;4986489;28;19925;-91
2022/04/24 03:33:08;;;;;;;;;;;;;;;11.09;69.39;100475.81;4955210;28;20488;-92
2022/04/24 03:35:34;;;;;;;;;;;;;;;11.22;68.76;100477.19;4956336;28;19962;-91
2022/04/24 03:37:59;;;;;;;;;;;;;;;11.18;68.87;100477.50;4954998;28;20083;-91
2022/04/24 03:40:25;;;;;;;;;;;;;;;11.11;69.01;100481.88;4988760;28;19993;-90
2022/04/24 03:42:53;;;;;;;;;;;;;;;11.09;69.10;100489.28;4955114;28;19962;-91
2022/04/24 03:45:18;;;;;;;;;;;;;;;11.08;69.12;100482.22;4973141;28;19964;-92
2022/04/24 03:47:47;;;;;;;;;;;;;;;11.05;69.16;100482.56;4956129;28;19950;-90
2022/04/24 03:50:13;;;;;;;;;;;;;;;11.08;68.92;100490.28;4951421;28;20366;-92
2022/04/24 03:52:38;;;;;;;;;;;;;;;11.04;69.30;100491.63;4970704;28;19968;-90
2022/04/24 03:55:04;;;;;;;;;;;;;;;11.18;68.78;100493.63;4961400;28;19968;-90
2022/04/24 03:57:31;;;;;;;;;;;;;;;11.16;68.69;100492.97;4966337;28;20353;-92
2022/04/24 03:59:56;;;;;;;;;;;;;;;11.24;68.55;100496.66;4959823;28;19914;-89
2022/04/24 04:02:22;;;;;;;;;;;;;;;11.26;68.57;100491.94;4952781;28;20337;-90
2022/04/24 04:04:47;;;;;;;;;;;;;;;11.30;68.25;100485.22;4974507;28;19918;-91
2022/04/24 04:07:12;;;;;;;;;;;;;;;11.38;68.08;100485.22;4952000;28;19922;-89
2022/04/24 04:09:38;;;;;;;;;;;;;;;11.47;67.63;100497.66;4957774;28;19914;-91
2022/04/24 04:12:05;;;;;;;;;;;;;;;11.48;67.53;100499.34;5000359;28;20396;-91
2022/04/24 04:14:30;;;;;;;;;;;;;;;11.63;67.17;100504.84;4962725;28;19911;-92
2022/04/24 04:16:55;;;;;;;;;;;;;;;11.71;67.11;100504.03;4951214;28;20512;-89
2022/04/24 04:19:20;;;;;;;;;;;;;;;11.82;66.83;100512.56;4958347;28;19922;-92
2022/04/24 04:21:46;;;;;;;;;;;;;;;11.96;66.31;100519.13;4971657;28;19910;-91
2022/04/24 04:24:12;;;;;;;;;;;;;;;12.02;66.14;100521.13;5002434;28;19921;-92
2022/04/24 04:26:38;;;;;;;;;;;;;;;12.03;66.04;100520.13;4970313;28;19914;-92
2022/04/24 04:29:03;;;;;;;;;;;;;;;12.13;65.67;100519.91;4984958;28;19980;-91
2022/04/24 04:31:28;;;;;;;;;;;;;;;12.13;65.83;100519.91;4971173;28;19942;-91
2022/04/24 04:33:54;;;;;;;;;;;;;;;12.24;65.36;100519.53;4973477;28;19918;-89
2022/04/24 04:36:19;;;;;;;;;;;;;;;12.31;65.04;100527.72;4958244;28;19949;-91
2022/04/24 04:38:45;;;;;;;;;;;;;;;12.35;65.14;100530.94;4944983;28;19918;-90
2022/04/24 04:41:10;;;;;;;;;;;;;;;12.48;64.31;100527.66;4951651;28;19918;-93
2022/04/24 04:43:35;;;;;;;;;;;;;;;12.33;64.88;100531.09;4955643;28;19918;-91
2022/04/24 04:46:01;;;;;;;;;;;;;;;12.38;64.76;100534.09;4968175;28;19972;-90
2022/04/24 04:48:26;;;;;;;;;;;;;;;12.51;64.27;100535.41;4965325;28;19914;-92
2022/04/24 04:50:51;;;;;;;;;;;;;;;12.63;64.03;100542.06;4983954;28;19992;-90
2022/04/24 04:53:17;;;;;;;;;;;;;;;13.50;61.71;100528.28;4953342;28;19918;-90
2022/04/24 04:55:42;;;;;;;;;;;;;;;15.92;54.50;100529.81;4964605;28;19921;-92
2022/04/24 04:58:08;;;;;;;;;;;;;;;18.50;48.44;100532.19;4961839;28;19918;-92
2022/04/24 05:00:33;;;;;;;;;;;;;;;20.49;42.93;100526.16;4964111;28;19921;-90
2022/04/24 05:03:01;;;;;;;;;;;;;;;22.51;38.45;100532.50;4963516;28;19919;-93
2022/04/24 05:05:26;;;;;;;;;;;;;;;24.28;34.94;100536.81;4987170;28;20017;-90
2022/04/24 05:07:52;;;;;;;;;;;;;;;25.11;33.05;100529.28;4953778;28;20398;-92
2022/04/24 05:10:20;;;;;;;;;;;;;;;26.40;30.64;100531.03;4932866;28;20009;-92
2022/04/24 05:12:45;;;;;;;;;;;;;;;27.31;28.29;100533.22;4955585;28;19972;-92
2022/04/24 05:15:14;;;;;;;;;;;;;;;28.31;27.11;100528.91;4990111;28;19978;-92
2022/04/24 05:17:39;;;;;;;;;;;;;;;29.36;25.75;100520.56;4956423;28;19940;-92
2022/04/24 05:20:07;;;;;;;;;;;;;;;30.61;23.98;100523.41;4963825;28;20319;-91
2022/04/24 05:22:32;;;;;;;;;;;;;;;31.49;22.61;100531.25;5002736;28;19946;-91
2022/04/24 05:24:58;;;;;;;;;;;;;;;32.34;21.76;100526.31;4962012;28;19914;-91
2022/04/24 05:27:23;;;;;;;;;;;;;;;33.00;20.69;100518.47;4955018;28;19915;-91
2022/04/24 05:29:49;;;;;;;;;;;;;;;33.42;20.54;100525.50;4963536;28;19967;-91
2022/04/24 05:32:15;;;;;;;;;;;;;;;33.11;20.58;100524.66;4970783;28;19965;-93
2022/04/24 05:34:40;;;;;;;;;;;;;;;33.80;20.21;100518.72;4960589;28;19925;-92
2022/04/24 05:37:05;;;;;;;;;;;;;;;34.67;18.86;100519.00;4954704;28;19945;-92
2022/04/24 05:39:31;;;;;;;;;;;;;;;35.52;17.72;100532.47;4993487;28;19914;-92
2022/04/24 05:41:59;;;;;;;;;;;;;;;35.89;17.65;100525.31;4936122;28;19980;-92
2022/04/24 05:44:24;;;;;;;;;;;;;;;36.41;17.15;100529.84;4958265;28;19914;-92
2022/04/24 05:46:50;;;;;;;;;;;;;;;36.44;16.79;100522.75;4974062;28;19914;-91
2022/04/24 05:49:16;;;;;;;;;;;;;;;35.42;18.13;100528.03;4972048;28;19921;-89
2022/04/24 05:51:43;;;;;;;;;;;;;;;33.56;19.67;100527.41;4962729;28;21080;-90
2022/04/24 05:54:09;;;;;;;;;;;;;;;33.47;19.98;100538.50;4961973;28;19914;-92
2022/04/24 05:56:34;;;;;;;;;;;;;;;34.38;18.87;100534.38;4973318;28;19972;-92
2022/04/24 05:59:02;;;;;;;;;;;;;;;33.71;19.83;100537.34;4996346;28;19965;-92
2022/04/24 06:01:27;;;;;;;;;;;;;;;31.92;21.45;100545.75;4970992;28;19914;-90
2022/04/24 06:03:53;;;;;;;;;;;;;;;31.77;21.70;100548.81;4982346;28;19945;-90
2022/04/24 06:06:18;;;;;;;;;;;;;;;32.28;20.79;100552.59;4995668;28;19922;-90
2022/04/24 06:08:43;;;;;;;;;;;;;;;29.70;23.29;100550.22;5005472;28;19914;-90
2022/04/24 06:11:09;;;;;;;;;;;;;;;31.34;21.65;100547.00;4987166;28;19921;-92
2022/04/24 06:13:34;;;;;;;;;;;;;;;31.74;20.76;100561.34;4966909;28;19922;-91
2022/04/24 06:16:00;;;;;;;;;;;;;;;32.97;19.28;100555.31;4956082;28;20020;-91
2022/04/24 06:18:25;;;;;;;;;;;;;;;33.23;19.18;100555.53;4960299;28;20393;-92
2022/04/24 06:20:51;;;;;;;;;;;;;;;34.36;17.86;100555.38;4987994;28;19918;-92
2022/04/24 06:23:16;;;;;;;;;;;;;;;35.36;17.32;100553.72;4963359;28;19921;-93
2022/04/24 06:25:44;;;;;;;;;;;;;;;36.06;16.44;100557.16;4967181;28;19942;-92
2022/04/24 06:28:09;;;;;;;;;;;;;;;36.12;16.28;100562.25;4971346;28;19922;-89
2022/04/24 06:30:40;;;;;;;;;;;;;;;36.59;15.72;100560.56;4981680;28;19933;-90
2022/04/24 06:33:11;;;;;;;;;;;;;;;36.25;15.92;100560.41;4982191;28;19944;-89
2022/04/24 06:35:36;;;;;;;;;;;;;;;36.34;15.97;100558.38;5013420;28;19915;-88
2022/04/24 06:38:04;;;;;;;;;;;;;;;36.47;15.77;100555.66;4973330;28;19948;-92
2022/04/24 06:40:29;;;;;;;;;;;;;;;37.36;15.39;100558.31;4966511;28;19914;-91
2022/04/24 06:43:01;;;;;;;;;;;;;;;37.58;14.88;100548.69;4967589;28;19983;-90
2022/04/24 06:45:29;;;;;;;;;;;;;;;37.64;14.95;100546.50;4959079;28;19976;-91
2022/04/24 06:47:57;;;;;;;;;;;;;;;38.30;14.41;100546.34;4956394;28;20017;-91
2022/04/24 06:50:22;;;;;;;;;;;;;;;38.60;14.14;100543.31;4971572;28;19976;-92
2022/04/24 06:52:57;;;;;;;;;;;;;;;39.38;13.57;100549.66;4966397;28;19922;-91
2022/04/24 06:55:23;;;;;;;;;;;;;;;39.35;13.43;100547.56;4960727;28;19919;-90
2022/04/24 06:57:50;;;;;;;;;;;;;;;39.57;13.20;100544.19;4959472;28;19929;-92
2022/04/24 07:00:16;;;;;;;;;;;;;;;39.67;13.18;100546.47;4964332;28;19922;-91
2022/04/24 07:02:41;;;;;;;;;;;;;;;39.81;13.05;100553.69;4997674;28;20025;-91
2022/04/24 07:05:06;;;;;;;;;;;;;;;39.98;13.22;100556.13;4961866;28;19987;-92
2022/04/24 07:07:32;;;;;;;;;;;;;;;39.86;13.40;100553.41;4955411;28;20024;-90
2022/04/24 07:09:59;;;;;;;;;;;;;;;40.01;13.49;100555.38;4960375;28;19922;-92
2022/04/24 07:12:25;;;;;;;;;;;;;;;39.99;13.62;100549.31;4957183;28;20342;-90
2022/04/24 07:14:50;;;;;;;;;;;;;;;40.42;13.21;100556.03;4960667;28;19944;-90
2022/04/24 07:17:17;;;;;;;;;;;;;;;40.20;13.35;100556.66;4953163;28;20410;-92
2022/04/24 07:19:43;;;;;;;;;;;;;;;40.63;12.98;100541.59;4961086;28;19919;-92
2022/04/24 07:22:08;;;;;;;;;;;;;;;40.56;13.10;100549.91;4958778;28;20305;-91
2022/04/24 07:24:33;;;;;;;;;;;;;;;40.30;13.24;100550.50;4961789;28;20350;-91
2022/04/24 07:27:01;;;;;;;;;;;;;;;40.58;12.99;100553.16;4953564;28;20430;-91
2022/04/24 07:29:27;;;;;;;;;;;;;;;39.94;13.38;100549.56;4977240;28;20383;-91
2022/04/24 07:31:53;;;;;;;;;;;;;;;39.20;13.88;100549.97;4958178;28;19926;-92
2022/04/24 07:34:18;;;;;;;;;;;;;;;38.84;14.50;100553.69;4963548;28;19910;-91
2022/04/24 07:36:44;;;;;;;;;;;;;;;39.19;14.25;100547.50;4950985;28;19919;-93
2022/04/24 07:39:13;;;;;;;;;;;;;;;38.06;14.96;100554.78;4958683;28;19918;-92
2022/04/24 07:41:38;;;;;;;;;;;;;;;35.90;16.99;100546.53;4971200;28;19953;-91
2022/04/24 07:44:03;;;;;;;;;;;;;;;36.89;16.37;100544.53;4960819;28;20290;-94
2022/04/24 07:46:29;;;;;;;;;;;;;;;37.64;15.50;100533.31;4971576;28;20005;-91
2022/04/24 07:48:54;;;;;;;;;;;;;;;37.84;15.32;100540.00;4962912;28;20026;-90
2022/04/24 07:51:19;;;;;;;;;;;;;;;38.00;15.33;100541.00;4934352;28;19915;-93
2022/04/24 07:53:45;;;;;;;;;;;;;;;37.17;15.74;100534.41;4960069;28;20009;-91
2022/04/24 07:56:10;;;;;;;;;;;;;;;36.87;16.22;100538.44;4970446;28;19929;-92
2022/04/24 07:58:38;;;;;;;;;;;;;;;36.74;16.17;100538.38;4962126;28;20366;-91
2022/04/24 08:01:03;;;;;;;;;;;;;;;35.41;16.88;100537.59;4969354;28;19961;-92
2022/04/24 08:03:28;;;;;;;;;;;;;;;34.87;17.79;100534.31;4995222;28;19962;-92
2022/04/24 08:05:54;;;;;;;;;;;;;;;32.70;19.86;100542.25;4953755;28;19942;-91
2022/04/24 08:08:20;;;;;;;;;;;;;;;32.12;20.55;100541.78;4940874;29;19924;-91
2022/04/24 08:10:49;;;;;;;;;;;;;;;32.21;20.53;100538.28;4966565;28;20004;-91
2022/04/24 08:13:14;;;;;;;;;;;;;;;32.02;20.54;100544.75;4967368;28;20013;-92
2022/04/24 08:15:40;;;;;;;;;;;;;;;31.31;21.24;100530.97;4980636;28;20377;-94
2022/04/24 08:18:05;;;;;;;;;;;;;;;32.28;20.18;100533.13;4962388;28;20001;-91
2022/04/24 08:20:31;;;;;;;;;;;;;;;31.75;20.90;100521.34;4964438;28;19918;-93
2022/04/24 08:22:59;;;;;;;;;;;;;;;30.75;21.90;100517.09;4995769;28;19987;-93
2022/04/24 08:25:25;;;;;;;;;;;;;;;31.88;20.83;100524.44;4956005;28;19914;-92
2022/04/24 08:27:51;;;;;;;;;;;;;;;31.08;21.46;100526.34;4955243;28;19918;-94
2022/04/24 08:30:17;;;;;;;;;;;;;;;31.97;20.66;100519.84;4961101;28;19919;-92
2022/04/24 08:32:43;;;;;;;;;;;;;;;32.69;19.86;100521.97;4995789;28;19918;-91
2022/04/24 08:35:09;;;;;;;;;;;;;;;33.04;19.49;100524.22;4959177;28;19921;-92
2022/04/24 08:37:35;;;;;;;;;;;;;;;32.95;19.21;100527.75;4952615;28;20013;-92
2022/04/24 08:40:00;;;;;;;;;;;;;;;33.20;19.02;100528.31;4962331;28;20005;-93
2022/04/24 08:42:26;;;;;;;;;;;;;;;33.95;18.02;100525.81;4998282;28;19918;-92
2022/04/24 08:44:52;;;;;;;;;;;;;;;34.05;17.98;100525.53;4957934;28;19928;-93
2022/04/24 08:47:18;;;;;;;;;;;;;;;33.90;17.76;100524.00;4953693;28;20013;-93
2022/04/24 08:49:43;;;;;;;;;;;;;;;34.06;17.83;100522.41;4963172;28;19919;-90
2022/04/24 08:52:09;;;;;;;;;;;;;;;34.31;17.85;100527.63;4962272;28;19949;-92
2022/04/24 08:54:34;;;;;;;;;;;;;;;33.91;17.81;100527.63;4976522;28;19945;-88
2022/04/24 08:56:59;;;;;;;;;;;;;;;34.08;17.55;100535.22;4968951;28;20363;-93
2022/04/24 08:59:25;;;;;;;;;;;;;;;33.61;18.12;100538.44;4963907;28;20015;-92
2022/04/24 09:01:51;;;;;;;;;;;;;;;33.78;17.77;100535.75;4973059;28;19914;-90
2022/04/24 09:04:17;;;;;;;;;;;;;;;34.32;17.34;100526.47;4963888;28;19945;-92
2022/04/24 09:06:44;;;;;;;;;;;;;;;33.57;17.95;100517.94;5004418;28;20329;-91
2022/04/24 09:09:10;;;;;;;;;;;;;;;34.48;17.76;100522.06;4992488;28;19914;-92
2022/04/24 09:11:35;;;;;;;;;;;;;;;33.93;17.86;100525.34;4973454;28;20297;-92
2022/04/24 09:14:20;;;;;;;;;;;;;;;34.43;17.49;100525.84;4964838;28;19942;-92
2022/04/24 09:16:53;;;;;;;;;;;;;;;34.02;17.62;100523.38;4973215;28;19957;-90
2022/04/24 09:19:22;;;;;;;;;;;;;;;33.96;17.91;100521.91;4963706;28;19914;-91
2022/04/24 09:21:50;;;;;;;;;;;;;;;33.89;18.11;100521.53;5005704;28;19914;-91
2022/04/24 09:24:16;;;;;;;;;;;;;;;34.23;17.72;100524.50;4966224;28;19910;-91
2022/04/24 09:26:54;;;;;;;;;;;;;;;34.48;17.70;100528.47;4940510;28;19972;-90
2022/04/24 09:29:21;;;;;;;;;;;;;;;34.95;17.42;100519.50;4967627;28;19922;-91
2022/04/24 09:31:50;;;;;;;;;;;;;;;34.45;17.94;100522.72;4956835;28;19981;-92
2022/04/24 09:34:21;;;;;;;;;;;;;;;35.22;17.23;100518.38;4970102;28;19914;-92
2022/04/24 09:36:47;;;;;;;;;;;;;;;34.53;17.11;100510.75;4976660;28;19915;-91
2022/04/24 09:39:12;;;;;;;;;;;;;;;34.36;17.46;100514.34;4968142;28;19937;-89
2022/04/24 09:41:39;;;;;;;;;;;;;;;33.96;18.10;100516.31;4955755;28;19915;-91
2022/04/24 09:44:11;;;;;;;;;;;;;;;33.30;18.42;100511.34;4963611;28;20244;-91
2022/04/24 09:46:37;;;;;;;;;;;;;;;33.33;18.30;100509.88;4957460;28;19914;-89
2022/04/24 09:49:02;;;;;;;;;;;;;;;31.46;20.31;100523.53;4959933;28;19997;-91
2022/04/24 09:51:27;;;;;;;;;;;;;;;31.52;20.58;100514.81;4958490;28;19957;-90
2022/04/24 09:53:53;;;;;;;;;;;;;;;32.82;19.35;100511.09;4965427;28;19962;-91
2022/04/24 09:56:19;;;;;;;;;;;;;;;34.56;17.47;100506.47;4977695;28;19910;-89
2022/04/24 09:58:45;;;;;;;;;;;;;;;32.94;18.68;100509.44;5002646;28;19922;-89
2022/04/24 10:01:11;;;;;;;;;;;;;;;31.96;19.85;100507.91;4958004;28;19971;-91
2022/04/24 10:03:38;;;;;;;;;;;;;;;32.45;19.16;100510.22;4967979;28;20016;-88
2022/04/24 10:06:05;;;;;;;;;;;;;;;31.85;19.97;100506.41;4976408;28;19936;-91
2022/04/24 10:08:30;;;;;;;;;;;;;;;32.32;19.64;100517.47;4964637;28;19923;-91
2022/04/24 10:10:55;;;;;;;;;;;;;;;31.26;20.67;100506.06;4968780;28;20393;-92
2022/04/24 10:13:21;;;;;;;;;;;;;;;31.65;20.49;100518.72;4995177;28;19941;-92
2022/04/24 10:15:51;;;;;;;;;;;;;;;33.09;19.23;100501.88;4968798;28;19914;-92
2022/04/24 10:18:29;;;;;;;;;;;;;;;34.25;17.69;100502.69;4997529;28;19924;-95
2022/04/24 10:21:14;;;;;;;;;;;;;;;32.62;19.31;100506.84;4961164;28;19914;-89
2022/04/24 10:23:39;;;;;;;;;;;;;;;32.43;19.39;100505.00;4967118;28;19918;-89
2022/04/24 10:26:20;;;;;;;;;;;;;;;32.50;19.32;100502.63;4957387;28;19921;-94
2022/04/24 10:28:47;;;;;;;;;;;;;;;32.46;19.29;100509.91;4957545;28;20017;-92
2022/04/24 10:31:15;;;;;;;;;;;;;;;32.31;19.54;100490.78;4970825;28;19921;-93
2022/04/24 10:33:51;;;;;;;;;;;;;;;32.73;19.14;100502.66;4960230;28;19919;-91
2022/04/24 10:36:19;;;;;;;;;;;;;;;33.02;18.94;100493.91;4964312;28;19919;-92
2022/04/24 10:38:54;;;;;;;;;;;;;;;33.15;18.82;100501.41;4953829;28;20009;-93
2022/04/24 10:41:21;;;;;;;;;;;;;;;31.87;19.78;100508.91;4972982;28;20002;-92
2022/04/24 10:43:48;;;;;;;;;;;;;;;30.95;20.66;100502.13;4984323;28;19941;-92
2022/04/24 10:46:29;;;;;;;;;;;;;;;30.58;21.28;100507.34;4976603;28;19916;-88
2022/04/24 10:49:05;;;;;;;;;;;;;;;31.42;20.85;100503.03;4990321;28;19948;-89
2022/04/24 10:51:31;;;;;;;;;;;;;;;32.56;19.72;100503.34;4976192;28;19911;-91
2022/04/24 10:54:00;;;;;;;;;;;;;;;32.16;19.61;100505.84;4964495;28;19993;-91
2022/04/24 10:56:35;;;;;;;;;;;;;;;30.39;21.13;100510.09;4971926;28;19918;-93
2022/04/24 10:59:14;;;;;;;;;;;;;;;31.50;20.30;100502.34;4995160;28;19999;-91
2022/04/24 11:01:44;;;;;;;;;;;;;;;33.46;18.72;100508.16;4951818;28;19914;-93
2022/04/24 11:04:10;;;;;;;;;;;;;;;33.13;18.79;100502.84;4964458;28;20444;-92
2022/04/24 11:06:36;;;;;;;;;;;;;;;32.46;19.67;100501.56;4953250;28;19921;-92
2022/04/24 11:09:13;;;;;;;;;;;;;;;33.06;19.36;100488.56;4956933;28;19922;-91
2022/04/24 11:11:48;;;;;;;;;;;;;;;32.66;19.42;100486.41;4953400;28;19919;-91
2022/04/24 11:14:18;;;;;;;;;;;;;;;33.13;19.12;100494.50;4954474;28;20269;-93
2022/04/24 11:16:47;;;;;;;;;;;;;;;32.55;19.37;100496.94;4951705;28;19914;-90
2022/04/24 11:19:18;;;;;;;;;;;;;;;30.60;21.45;100498.72;4975548;28;19956;-90
2022/04/24 11:21:43;;;;;;;;;;;;;;;31.09;20.88;100489.13;4972881;28;19914;-90
2022/04/24 11:24:09;;;;;;;;;;;;;;;30.07;22.37;100491.34;4982090;28;19941;-88
2022/04/24 11:26:34;;;;;;;;;;;;;;;31.40;20.75;100485.81;4992563;28;19918;-91
2022/04/24 11:29:07;;;;;;;;;;;;;;;30.46;21.32;100466.19;4983837;28;19925;-91
2022/04/24 11:31:32;;;;;;;;;;;;;;;29.29;22.81;100487.69;4983757;28;20018;-92
2022/04/24 11:33:58;;;;;;;;;;;;;;;29.89;22.63;100479.06;4996147;28;19950;-93
2022/04/24 11:36:25;;;;;;;;;;;;;;;30.00;22.26;100474.25;4976857;28;19915;-92
2022/04/24 11:38:50;;;;;;;;;;;;;;;28.31;24.48;100484.69;4972620;28;19918;-93
2022/04/24 11:41:18;;;;;;;;;;;;;;;28.59;24.23;100474.06;4960218;28;20422;-90
2022/04/24 11:43:44;;;;;;;;;;;;;;;27.02;26.16;100479.63;4974300;28;19933;-87
2022/04/24 11:51:37;;;;;;;;;;;;;;;25.94;28.00;100459.19;4951399;28;19917;-88
2022/04/24 11:54:03;;;;;;;;;;;;;;;26.51;27.15;100469.31;4957315;28;19918;-93
2022/04/24 11:56:28;;;;;;;;;;;;;;;25.49;28.65;100464.13;4970246;28;19922;-91
2022/04/24 11:58:55;;;;;;;;;;;;;;;25.79;28.29;100457.97;4989375;28;19922;-94
2022/04/24 12:01:21;;;;;;;;;;;;;;;24.98;29.20;100467.28;4950256;28;19969;-92
2022/04/24 12:03:47;;;;;;;;;;;;;;;24.97;28.83;100460.13;4953317;28;19938;-91
2022/04/24 12:06:13;;;;;;;;;;;;;;;24.18;30.63;100457.88;4971547;28;20345;-90
2022/04/24 12:08:45;;;;;;;;;;;;;;;23.95;31.04;100461.72;4967221;28;20008;-90
2022/04/24 12:11:31;;;;;;;;;;;;;;;24.42;30.81;100461.19;4952331;28;19914;-92
2022/04/24 12:13:59;;;;;;;;;;;;;;;23.59;31.19;100452.97;4964871;28;19941;-87
2022/04/24 12:16:27;;;;;;;;;;;;;;;23.69;31.52;100450.34;4952279;28;20341;-92
2022/04/24 12:18:56;;;;;;;;;;;;;;;23.37;32.57;100453.75;4962688;28;19967;-92
2022/04/24 12:21:21;;;;;;;;;;;;;;;23.56;32.25;100451.56;4950783;28;19961;-92
2022/04/24 12:24:05;;;;;;;;;;;;;;;23.77;32.66;100449.97;4960753;28;19966;-92
2022/04/24 12:26:30;;;;;;;;;;;;;;;23.55;32.41;100451.78;4932784;28;19964;-92
2022/04/24 12:28:58;;;;;;;;;;;;;;;22.91;33.57;100452.13;4960124;28;20339;-92
2022/04/24 12:31:24;;;;;;;;;;;;;;;22.01;35.40;100449.03;4955410;28;19960;-90
2022/04/24 12:33:51;;;;;;;;;;;;;;;22.17;35.21;100447.41;4964465;28;19914;-92
2022/04/24 12:36:16;;;;;;;;;;;;;;;22.10;35.57;100453.06;4965245;28;19915;-93
2022/04/24 12:38:52;;;;;;;;;;;;;;;21.89;35.26;100445.47;4957655;28;19983;-91